createdAt,value
2017-03-15T10:49:35.990Z,60.55
2017-03-15T10:50:36.626Z,60.27
2017-03-15T10:51:37.325Z,61.6
2017-03-15T10:52:37.959Z,61.51
2017-03-15T10:53:38.623Z,61.6
2017-03-15T10:54:39.263Z,61.96
2017-03-15T10:55:39.932Z,61.99
2017-03-15T10:56:40.589Z,61.7
2017-03-15T10:57:41.270Z,61.7
2017-03-15T10:58:41.940Z,61.41
2017-03-15T10:59:42.650Z,62.08
2017-03-15T11:00:43.333Z,61.89
2017-03-15T11:01:43.973Z,62.18
2017-03-15T11:02:44.635Z,61.7
2017-03-15T11:03:45.301Z,61.13
2017-03-15T11:04:45.992Z,60.27
2017-03-15T11:05:46.649Z,59.7
2017-03-15T11:06:47.325Z,59.6
2017-03-15T11:07:48.001Z,60.55
2017-03-15T11:08:48.684Z,61.7
2017-03-15T11:09:49.401Z,63.04
2017-03-15T11:10:50.172Z,63.04
2017-03-15T11:11:50.857Z,62.75
2017-03-15T11:12:51.509Z,62.84
2017-03-15T11:13:52.187Z,63.32
2017-03-15T11:14:52.858Z,63.89
2017-03-15T11:15:53.527Z,64.18
2017-03-15T11:16:54.246Z,63.48
2017-03-15T11:17:54.888Z,63.96
2017-03-15T11:18:55.544Z,64.53
2017-03-15T11:19:56.224Z,64.53
2017-03-15T11:20:56.968Z,64.53
2017-03-15T11:21:57.606Z,64.53
2017-03-15T11:22:58.275Z,64.81
2017-03-15T11:23:58.958Z,64.62
2017-03-15T11:24:59.640Z,64.91
2017-03-15T11:26:00.315Z,64.53
2017-03-15T11:27:00.991Z,64.43
2017-03-15T11:28:01.651Z,63.67
2017-03-15T11:29:02.346Z,63.48
2017-03-15T11:30:03.077Z,63.2
2017-03-15T11:31:03.738Z,62.91
2017-03-15T11:32:04.395Z,63
2017-03-15T11:33:05.080Z,62.72
2017-03-15T11:34:05.731Z,62.91
2017-03-15T11:35:06.411Z,63.23
2017-03-15T11:36:07.077Z,63.29
2017-03-15T11:37:07.748Z,63.42
2017-03-15T11:38:08.437Z,64.18
2017-03-15T11:39:09.163Z,63.32
2017-03-15T11:40:09.841Z,63.23
2017-03-15T11:41:10.589Z,62.84
2017-03-15T11:42:11.249Z,63.04
2017-03-15T11:43:11.926Z,62.75
2017-03-15T11:44:12.587Z,61.7
2017-03-15T11:45:13.306Z,61.41
2017-03-15T11:46:13.900Z,61.51
2017-03-15T11:47:14.572Z,61.13
2017-03-15T11:48:15.250Z,60.46
2017-03-15T11:49:15.914Z,60.55
2017-03-15T11:50:16.570Z,61.13
2017-03-15T11:51:17.301Z,60.55
2017-03-15T11:52:17.944Z,60.55
2017-03-15T11:53:18.671Z,61.04
2017-03-15T11:54:19.321Z,60.65
2017-03-15T11:55:20.018Z,60.94
2017-03-15T11:56:20.679Z,61.04
2017-03-15T11:57:21.352Z,61.13
2017-03-15T11:58:22.013Z,61.6
2017-03-15T11:59:22.689Z,61.6
2017-03-15T12:00:23.350Z,60.46
2017-03-15T12:01:23.995Z,60.75
2017-03-15T12:02:24.657Z,60.84
2017-03-15T12:03:25.287Z,61.13
2017-03-15T12:04:25.959Z,59.99
2017-03-15T12:05:26.619Z,59.79
2017-03-15T12:06:27.303Z,58.07
2017-03-15T12:07:27.967Z,57.31
2017-03-15T12:08:28.630Z,57.22
2017-03-15T12:09:29.293Z,57.6
2017-03-15T12:10:29.982Z,57.5
2017-03-15T12:11:30.655Z,58.46
2017-03-15T12:12:31.319Z,58.94
2017-03-15T12:13:32.017Z,59.03
2017-03-15T12:14:32.675Z,59.22
2017-03-15T12:15:33.342Z,59.12
2017-03-15T12:16:34.035Z,58.97
2017-03-15T12:17:34.725Z,58.77
2017-03-15T12:18:35.374Z,58.97
2017-03-15T12:19:36.037Z,58.29
2017-03-15T12:20:36.693Z,57.53
2017-03-15T12:21:37.361Z,57.43
2017-03-15T12:22:38.009Z,57.15
2017-03-15T12:23:38.667Z,57.34
2017-03-15T12:24:39.333Z,56.96
2017-03-15T12:25:40.007Z,57.24
2017-03-15T12:26:40.663Z,57.15
2017-03-15T12:27:41.325Z,57.75
2017-03-15T12:28:41.986Z,57.65
2017-03-15T12:29:42.647Z,57.28
2017-03-15T12:30:43.340Z,56.8
2017-03-15T12:31:43.950Z,56.8
2017-03-15T12:32:44.609Z,55.84
2017-03-15T12:33:45.269Z,56.04
2017-03-15T12:34:45.932Z,56.7
2017-03-15T12:35:46.577Z,55.94
2017-03-15T12:36:47.261Z,56.23
2017-03-15T12:37:47.940Z,55.65
2017-03-15T12:38:48.595Z,54.22
2017-03-15T12:39:49.235Z,53.08
2017-03-15T12:40:49.897Z,53.36
2017-03-15T12:41:50.566Z,53.08
2017-03-15T12:42:51.208Z,52.12
2017-03-15T12:43:51.867Z,52.03
2017-03-15T12:44:52.522Z,51.64
2017-03-15T12:45:53.236Z,51.74
2017-03-15T12:46:53.896Z,52.59
2017-03-15T12:47:54.569Z,53.24
2017-03-15T12:48:55.211Z,54.1
2017-03-15T12:49:55.896Z,54.86
2017-03-15T12:50:56.536Z,55.15
2017-03-15T12:51:57.181Z,55.62
2017-03-15T12:52:57.844Z,55.91
2017-03-15T12:53:58.510Z,55.82
2017-03-15T12:54:59.172Z,56.65
2017-03-15T12:55:59.821Z,56.77
2017-03-15T12:57:00.462Z,56.29
2017-03-15T12:58:01.123Z,56.07
2017-03-15T12:59:01.798Z,56.74
2017-03-15T13:00:02.475Z,56.74
2017-03-15T13:01:03.128Z,56.65
2017-03-15T13:02:03.801Z,56.77
2017-03-15T13:03:04.443Z,56.55
2017-03-15T13:04:05.107Z,56.55
2017-03-15T13:05:05.788Z,56.65
2017-03-15T13:06:06.453Z,56.65
2017-03-15T13:07:07.128Z,56.74
2017-03-15T13:08:07.807Z,57.22
2017-03-15T13:09:08.453Z,57.31
2017-03-15T13:10:09.105Z,57.72
2017-03-15T13:11:09.776Z,57.53
2017-03-15T13:12:10.437Z,57.63
2017-03-15T13:13:11.090Z,57.72
2017-03-15T13:14:11.724Z,57.34
2017-03-15T13:15:12.409Z,57.15
2017-03-15T13:16:13.078Z,56.87
2017-03-15T13:17:13.741Z,56.77
2017-03-15T13:18:14.392Z,56.55
2017-03-15T13:19:15.122Z,56.93
2017-03-15T13:20:15.781Z,57.6
2017-03-15T13:21:16.437Z,57.79
2017-03-15T13:22:17.092Z,57.6
2017-03-15T13:23:17.742Z,57.89
2017-03-15T13:24:18.400Z,57.89
2017-03-15T13:25:19.063Z,58.07
2017-03-15T13:26:19.754Z,59.03
2017-03-15T13:27:20.421Z,60.46
2017-03-15T13:28:21.082Z,61.6
2017-03-15T13:29:21.748Z,61.57
2017-03-15T13:30:22.400Z,61.8
2017-03-15T13:31:23.052Z,62.18
2017-03-15T13:32:23.716Z,62.65
2017-03-15T13:33:24.390Z,62.43
2017-03-15T13:34:25.027Z,62.52
2017-03-15T13:35:25.685Z,62.72
2017-03-15T13:36:26.324Z,63.2
2017-03-15T13:37:26.992Z,63.1
2017-03-15T13:38:27.651Z,64.05
2017-03-15T13:39:28.293Z,63.76
2017-03-15T13:40:29.010Z,64.34
2017-03-15T13:41:29.676Z,64.91
2017-03-15T13:42:30.336Z,65.39
2017-03-15T13:43:31.034Z,65.48
2017-03-15T13:44:31.690Z,65.48
2017-03-15T13:45:32.375Z,65.67
2017-03-15T13:46:33.035Z,65.86
2017-03-15T13:47:33.716Z,66.15
2017-03-15T13:48:34.381Z,65.67
2017-03-15T13:49:35.061Z,65.67
2017-03-15T13:50:35.727Z,65.29
2017-03-15T13:51:36.441Z,64.81
2017-03-15T13:52:37.129Z,64.43
2017-03-15T13:53:37.799Z,64.53
2017-03-15T13:54:38.517Z,63.76
2017-03-15T13:55:39.184Z,64.53
2017-03-15T13:56:39.847Z,64.53
2017-03-15T13:57:40.513Z,63.96
2017-03-15T13:58:41.181Z,63.96
2017-03-15T13:59:41.827Z,63.67
2017-03-15T14:00:42.491Z,63
2017-03-15T14:01:43.145Z,62.34
2017-03-15T14:02:43.812Z,61.57
2017-03-15T14:03:44.456Z,61.57
2017-03-15T14:04:45.125Z,61.86
2017-03-15T14:05:45.799Z,61.48
2017-03-15T14:06:46.487Z,61.29
2017-03-15T14:07:47.156Z,60.52
2017-03-15T14:08:47.811Z,60.52
2017-03-15T14:09:48.476Z,59.67
2017-03-15T14:10:49.133Z,59.95
2017-03-15T14:11:49.798Z,59.57
2017-03-15T14:12:50.462Z,59.28
2017-03-15T14:13:51.139Z,58.91
2017-03-15T14:14:51.807Z,59
2017-03-15T14:15:52.545Z,58.72
2017-03-15T14:16:53.232Z,58.91
2017-03-15T14:17:53.904Z,58.72
2017-03-15T14:18:54.580Z,59
2017-03-15T14:19:55.264Z,59.19
2017-03-15T14:20:55.914Z,59.86
2017-03-15T14:21:56.584Z,59.48
2017-03-15T14:22:57.255Z,59.09
2017-03-15T14:23:57.943Z,58.24
2017-03-15T14:24:58.607Z,58.52
2017-03-15T14:25:59.818Z,58.04
2017-03-15T14:27:00.579Z,59
2017-03-15T14:28:01.264Z,59.09
2017-03-15T14:29:01.923Z,59
2017-03-15T14:30:02.578Z,58.81
2017-03-15T14:31:03.235Z,59.09
2017-03-15T14:32:03.908Z,58.62
2017-03-15T14:33:04.589Z,58.91
2017-03-15T14:34:05.245Z,59
2017-03-15T14:35:05.919Z,58.62
2017-03-15T14:36:06.588Z,58.62
2017-03-15T14:37:07.276Z,58.91
2017-03-15T14:38:07.983Z,58.62
2017-03-15T14:39:08.665Z,59.19
2017-03-15T14:40:09.333Z,58.52
2017-03-15T14:41:10.024Z,58.24
2017-03-15T14:42:10.683Z,57.86
2017-03-15T14:43:11.339Z,57.57
2017-03-15T14:44:11.985Z,57.64
2017-03-15T14:45:12.653Z,57.54
2017-03-15T14:46:13.309Z,57.64
2017-03-15T14:47:13.988Z,57.73
2017-03-15T14:48:14.652Z,57.82
2017-03-15T14:49:15.318Z,58.59
2017-03-15T14:50:15.971Z,58.11
2017-03-15T14:51:16.664Z,58.11
2017-03-15T14:52:17.454Z,58.21
2017-03-15T14:53:18.129Z,58.5
2017-03-15T14:54:18.789Z,58.5
2017-03-15T14:55:19.452Z,58.5
2017-03-15T14:56:20.109Z,58.97
2017-03-15T14:57:20.760Z,58.59
2017-03-15T14:58:21.430Z,59.06
2017-03-15T14:59:22.105Z,58.78
2017-03-15T15:00:22.809Z,58.59
2017-03-15T15:01:23.467Z,58.11
2017-03-15T15:02:24.128Z,58.4
2017-03-15T15:03:24.799Z,59.06
2017-03-15T15:04:25.468Z,58.59
2017-03-15T15:05:26.139Z,57.92
2017-03-15T15:06:26.794Z,57.45
2017-03-15T15:07:27.472Z,57.45
2017-03-15T15:08:28.144Z,57.09
2017-03-15T15:09:28.822Z,56.71
2017-03-15T15:10:29.491Z,56.04
2017-03-15T15:11:30.190Z,55.66
2017-03-15T15:12:30.843Z,55.66
2017-03-15T15:13:31.518Z,54.8
2017-03-15T15:14:32.187Z,54.61
2017-03-15T15:15:32.860Z,55.47
2017-03-15T15:16:33.537Z,56.43
2017-03-15T15:17:34.208Z,56.87
2017-03-15T15:18:34.872Z,56.68
2017-03-15T15:19:35.577Z,55.92
2017-03-15T15:20:36.227Z,54.59
2017-03-15T15:21:36.891Z,54.59
2017-03-15T15:22:37.565Z,54.88
2017-03-15T15:23:38.251Z,54.49
2017-03-15T15:24:38.918Z,54.97
2017-03-15T15:25:39.586Z,55.35
2017-03-15T15:26:40.265Z,55.44
2017-03-15T15:27:40.935Z,55.63
2017-03-15T15:28:41.606Z,55.83
2017-03-15T15:29:42.272Z,55.83
2017-03-15T15:30:42.946Z,55.83
2017-03-15T15:31:43.619Z,55.92
2017-03-15T15:32:44.295Z,56.59
2017-03-15T15:33:44.952Z,56.59
2017-03-15T15:34:45.621Z,56.87
2017-03-15T15:35:46.276Z,56.87
2017-03-15T15:36:46.936Z,56.3
2017-03-15T15:37:47.597Z,56.97
2017-03-15T15:38:48.313Z,57.73
2017-03-15T15:39:49.007Z,57.26
2017-03-15T15:40:49.672Z,58.21
2017-03-15T15:41:50.341Z,58.3
2017-03-15T15:42:50.998Z,58.87
2017-03-15T15:43:51.686Z,58.87
2017-03-15T15:44:52.354Z,59.64
2017-03-15T15:45:53.016Z,59.83
2017-03-15T15:46:53.696Z,59.92
2017-03-15T15:47:54.363Z,60.21
2017-03-15T15:48:55.084Z,60.49
2017-03-15T15:49:55.761Z,60.69
2017-03-15T15:50:56.461Z,60.78
2017-03-15T15:51:57.116Z,61.07
2017-03-15T15:52:57.797Z,61.45
2017-03-15T15:53:58.460Z,61.45
2017-03-15T15:54:59.130Z,61.83
2017-03-15T15:55:59.790Z,61.54
2017-03-15T15:57:00.535Z,62.21
2017-03-15T15:58:01.204Z,62.78
2017-03-15T15:59:01.924Z,62.68
2017-03-15T16:00:02.579Z,63.26
2017-03-15T16:01:03.252Z,63.07
2017-03-15T16:02:03.927Z,63.26
2017-03-15T16:03:04.634Z,62.78
2017-03-15T16:04:05.305Z,63.17
2017-03-15T16:05:05.950Z,63.07
2017-03-15T16:06:06.687Z,63.26
2017-03-15T16:07:07.343Z,64.12
2017-03-15T16:08:08.031Z,64.31
2017-03-15T16:09:08.695Z,64.69
2017-03-15T16:10:09.359Z,65.07
2017-03-15T16:11:10.027Z,65.73
2017-03-15T16:12:10.689Z,66.11
2017-03-15T16:13:11.338Z,66.4
2017-03-15T16:14:11.991Z,66.78
2017-03-15T16:15:12.654Z,66.78
2017-03-15T16:16:13.352Z,67.26
2017-03-15T16:17:14.040Z,67.55
2017-03-15T16:18:14.682Z,67.41
2017-03-15T16:19:15.338Z,67.51
2017-03-15T16:20:16.022Z,67.55
2017-03-15T16:21:16.678Z,67.89
2017-03-15T16:22:17.331Z,67.74
2017-03-15T16:23:18.011Z,67.26
2017-03-15T16:24:18.706Z,67.07
2017-03-15T16:25:19.345Z,67.22
2017-03-15T16:26:20.051Z,67.35
2017-03-15T16:27:20.715Z,67.41
2017-03-15T16:28:21.362Z,67.51
2017-03-15T16:29:22.070Z,67.61
2017-03-15T16:30:22.761Z,67.8
2017-03-15T16:31:23.469Z,67.51
2017-03-15T16:32:24.159Z,67.41
2017-03-15T16:33:24.830Z,67.89
2017-03-15T16:34:25.508Z,67.7
2017-03-15T16:35:26.236Z,67.51
2017-03-15T16:36:26.923Z,67.22
2017-03-15T16:37:27.569Z,67.13
2017-03-15T16:38:28.245Z,67.22
2017-03-15T16:39:28.910Z,66.66
2017-03-15T16:40:29.621Z,66.27
2017-03-15T16:41:30.321Z,65.99
2017-03-15T16:42:30.990Z,65.51
2017-03-15T16:43:31.650Z,65.03
2017-03-15T16:44:32.464Z,65.23
2017-03-15T16:45:33.082Z,64.47
2017-03-15T16:46:33.751Z,64.56
2017-03-15T16:47:34.425Z,64.28
2017-03-15T16:48:35.132Z,64.84
2017-03-15T16:49:35.783Z,64.65
2017-03-15T16:50:36.445Z,64.37
2017-03-15T16:51:37.111Z,64.47
2017-03-15T16:52:37.760Z,65.89
2017-03-15T16:53:38.445Z,65.61
2017-03-15T16:54:39.113Z,65.13
2017-03-15T16:55:39.778Z,65.42
2017-03-15T16:56:40.431Z,65.13
2017-03-15T16:57:41.087Z,65.13
2017-03-15T16:58:41.760Z,65.23
2017-03-15T16:59:42.423Z,65.42
2017-03-15T17:00:43.092Z,64.75
2017-03-15T17:01:43.766Z,64.62
2017-03-15T17:02:44.437Z,64.72
2017-03-15T17:03:45.119Z,65.23
2017-03-15T17:04:45.776Z,64.84
2017-03-15T17:05:46.435Z,64.15
2017-03-15T17:06:47.129Z,63.8
2017-03-15T17:07:47.788Z,63.8
2017-03-15T17:08:48.462Z,64.15
2017-03-15T17:09:49.128Z,64.15
2017-03-15T17:10:49.813Z,64.47
2017-03-15T17:11:50.474Z,64.9
2017-03-15T17:12:51.130Z,64.24
2017-03-15T17:13:51.865Z,64.72
2017-03-15T17:14:52.554Z,64.72
2017-03-15T17:15:53.248Z,64.81
2017-03-15T17:16:53.894Z,64.81
2017-03-15T17:17:54.562Z,64.81
2017-03-15T17:18:55.228Z,64.53
2017-03-15T17:19:55.895Z,64.43
2017-03-15T17:20:56.983Z,64.43
2017-03-15T17:21:57.659Z,64.81
2017-03-15T17:22:58.337Z,64.62
2017-03-15T17:23:59.008Z,65.19
2017-03-15T17:24:59.710Z,65.48
2017-03-15T17:26:00.391Z,65.1
2017-03-15T17:27:01.239Z,65.67
2017-03-15T17:28:02.158Z,65.95
2017-03-15T17:29:02.937Z,65.86
2017-03-15T17:30:03.609Z,65.95
2017-03-15T17:31:04.328Z,65.67
2017-03-15T17:32:05.051Z,64.9
2017-03-15T17:33:05.769Z,65.1
2017-03-15T17:34:06.447Z,64.9
2017-03-15T17:35:07.094Z,65
2017-03-15T17:36:07.813Z,65.77
2017-03-15T17:37:08.489Z,65.67
2017-03-15T17:38:09.145Z,65.95
2017-03-15T17:39:09.847Z,65.95
2017-03-15T17:40:10.495Z,66.05
2017-03-15T17:41:11.145Z,66.33
2017-03-15T17:42:11.841Z,66.11
2017-03-15T17:43:12.511Z,66.39
2017-03-15T17:44:13.193Z,66.62
2017-03-15T17:45:13.880Z,66.97
2017-03-15T17:46:14.570Z,66.87
2017-03-15T17:47:15.354Z,67.07
2017-03-15T17:48:16.023Z,66.87
2017-03-15T17:49:16.688Z,67.25
2017-03-15T17:50:17.360Z,67.16
2017-03-15T17:51:18.116Z,68.21
2017-03-15T17:52:18.773Z,68.21
2017-03-15T17:53:19.443Z,67.82
2017-03-15T17:54:20.139Z,68.21
2017-03-15T17:55:20.840Z,68.68
2017-03-15T17:56:21.501Z,68.68
2017-03-15T17:57:22.169Z,68.77
2017-03-15T17:58:22.882Z,68.96
2017-03-15T17:59:23.574Z,69.15
2017-03-15T18:00:24.251Z,68.96
2017-03-15T18:01:24.986Z,69.73
2017-03-15T18:02:25.705Z,69.92
2017-03-15T18:03:26.382Z,69.63
2017-03-15T18:04:27.032Z,69.82
2017-03-15T18:05:27.694Z,70.1
2017-03-15T18:06:28.391Z,70.39
2017-03-15T18:07:29.066Z,70.87
2017-03-15T18:08:29.813Z,71.06
2017-03-15T18:09:30.508Z,70.97
2017-03-15T18:10:31.176Z,71.25
2017-03-15T18:11:31.870Z,71.44
2017-03-15T18:12:32.572Z,71.82
2017-03-15T18:13:33.263Z,71.82
2017-03-15T18:14:33.912Z,72.11
2017-03-15T18:15:34.579Z,72.49
2017-03-15T18:16:35.257Z,72.39
2017-03-15T18:17:35.944Z,72.3
2017-03-15T18:18:36.589Z,72.58
2017-03-15T18:19:37.252Z,73.15
2017-03-15T18:20:37.918Z,72.77
2017-03-15T18:21:38.630Z,73.53
2017-03-15T18:22:39.467Z,73.63
2017-03-15T18:23:40.200Z,73.53
2017-03-15T18:24:40.911Z,73.63
2017-03-15T18:25:41.615Z,73.53
2017-03-15T18:26:42.260Z,73.91
2017-03-15T18:27:43.016Z,73.97
2017-03-15T18:28:43.704Z,74.1
2017-03-15T18:29:44.356Z,74.29
2017-03-15T18:30:45.015Z,74.63
2017-03-15T18:31:45.822Z,74.67
2017-03-15T18:32:46.459Z,75.21
2017-03-15T18:33:47.096Z,74.92
2017-03-15T18:34:47.774Z,75.49
2017-03-15T18:35:48.441Z,75.87
2017-03-15T18:36:49.223Z,76.16
2017-03-15T18:37:49.898Z,75.49
2017-03-15T18:38:50.557Z,75.78
2017-03-15T18:39:51.218Z,76.54
2017-03-15T18:40:51.871Z,76.25
2017-03-15T18:41:52.532Z,76.25
2017-03-15T18:42:53.259Z,76.63
2017-03-15T18:43:53.898Z,76.73
2017-03-15T18:44:54.547Z,76.25
2017-03-15T18:45:55.219Z,76.63
2017-03-15T18:46:55.876Z,76.54
2017-03-15T18:47:56.537Z,76.82
2017-03-15T18:48:57.180Z,76.54
2017-03-15T18:49:57.850Z,76.44
2017-03-15T18:50:58.545Z,76.73
2017-03-15T18:51:59.233Z,77.01
2017-03-15T18:52:59.886Z,77.2
2017-03-15T18:54:00.574Z,77.39
2017-03-15T18:55:01.265Z,77.01
2017-03-15T18:56:01.920Z,77.2
2017-03-15T18:57:02.596Z,77.2
2017-03-15T18:58:03.271Z,77.87
2017-03-15T18:59:03.921Z,77.87
2017-03-15T19:00:04.576Z,77.77
2017-03-15T19:01:05.269Z,77.77
2017-03-15T19:02:05.916Z,77.49
2017-03-15T19:03:06.570Z,77.11
2017-03-15T19:04:07.222Z,77.77
2017-03-15T19:05:07.889Z,77.58
2017-03-15T19:06:08.536Z,77.3
2017-03-15T19:07:09.224Z,77.87
2017-03-15T19:08:09.874Z,77.58
2017-03-15T19:09:10.550Z,77.58
2017-03-15T19:10:11.286Z,77.68
2017-03-15T19:11:11.959Z,77.68
2017-03-15T19:12:12.635Z,77.49
2017-03-15T19:13:13.645Z,77.49
2017-03-15T19:14:14.613Z,77.77
2017-03-15T19:15:15.262Z,77.87
2017-03-15T19:16:15.928Z,78.16
2017-03-15T19:17:16.617Z,77.77
2017-03-15T19:18:17.565Z,77.87
2017-03-15T19:19:18.235Z,78.06
2017-03-15T19:20:18.886Z,77.77
2017-03-15T19:21:19.541Z,78.16
2017-03-15T19:22:20.190Z,77.97
2017-03-15T19:23:20.908Z,78.06
2017-03-15T19:24:21.623Z,77.77
2017-03-15T19:25:22.293Z,77.58
2017-03-15T19:26:22.999Z,78.06
2017-03-15T19:27:23.656Z,78.06
2017-03-15T19:28:24.308Z,77.97
2017-03-15T19:29:24.960Z,77.68
2017-03-15T19:30:25.621Z,77.77
2017-03-15T19:31:26.278Z,78.63
2017-03-15T19:32:26.953Z,78.53
2017-03-15T19:33:27.660Z,78.44
2017-03-15T19:34:28.506Z,78.63
2017-03-15T19:35:29.162Z,78.72
2017-03-15T19:36:29.825Z,79.2
2017-03-15T19:37:30.525Z,79.01
2017-03-15T19:38:31.153Z,78.82
2017-03-15T19:39:31.812Z,79.2
2017-03-15T19:40:32.515Z,79.49
2017-03-15T19:41:33.192Z,79.44
2017-03-15T19:42:34.445Z,79.49
2017-03-15T19:43:35.138Z,79.49
2017-03-15T19:44:35.799Z,79.68
2017-03-15T19:45:36.435Z,80.11
2017-03-15T19:46:37.090Z,80.05
2017-03-15T19:47:37.752Z,80.53
2017-03-15T19:48:38.409Z,80.58
2017-03-15T19:49:39.052Z,81.01
2017-03-15T19:50:39.888Z,80.91
2017-03-15T19:51:40.558Z,81.35
2017-03-15T19:52:41.250Z,80.68
2017-03-15T19:53:41.925Z,81.58
2017-03-15T19:54:42.572Z,81.06
2017-03-15T19:55:43.241Z,81.35
2017-03-15T19:56:43.911Z,81.73
2017-03-15T19:57:44.571Z,81.54
2017-03-15T19:58:45.242Z,81.92
2017-03-15T19:59:45.924Z,81.92
2017-03-15T20:00:46.590Z,82.01
2017-03-15T20:01:47.257Z,82.87
2017-03-15T20:02:47.999Z,82.87
2017-03-15T20:03:48.822Z,83.44
2017-03-15T20:04:49.526Z,83.44
2017-03-15T20:05:50.247Z,83.25
2017-03-15T20:06:51.085Z,83.62
2017-03-15T20:07:51.779Z,83.62
2017-03-15T20:08:52.488Z,83.72
2017-03-15T20:09:53.295Z,83.34
2017-03-15T20:10:54.023Z,83.44
2017-03-15T20:11:54.770Z,83.44
2017-03-15T20:12:55.596Z,84.1
2017-03-15T20:13:56.336Z,83.72
2017-03-15T20:14:57.091Z,83.91
2017-03-15T20:15:57.896Z,84.01
2017-03-15T20:16:58.756Z,83.82
2017-03-15T20:17:59.445Z,83.91
2017-03-15T20:19:00.195Z,84.29
2017-03-15T20:20:00.988Z,84.24
2017-03-15T20:21:01.808Z,84.24
2017-03-15T20:22:02.515Z,83.58
2017-03-15T20:23:03.571Z,83.53
2017-03-15T20:24:04.339Z,83.48
2017-03-15T20:25:05.326Z,83.58
2017-03-15T20:26:06.096Z,83.44
2017-03-15T20:27:06.892Z,83.48
2017-03-15T20:28:07.829Z,83.62
2017-03-15T20:29:08.559Z,83.53
2017-03-15T20:30:09.251Z,83.91
2017-03-15T20:31:09.936Z,83.72
2017-03-15T20:32:10.601Z,83.82
2017-03-15T20:33:11.291Z,84.01
2017-03-15T20:34:12.073Z,83.72
2017-03-15T20:35:12.927Z,83.72
2017-03-15T20:36:13.723Z,84.1
2017-03-15T20:37:14.524Z,84.2
2017-03-15T20:38:15.244Z,84.39
2017-03-15T20:39:16.001Z,84.29
2017-03-15T20:40:16.735Z,84.48
2017-03-15T20:41:17.471Z,84.67
2017-03-15T20:42:18.430Z,84.95
2017-03-15T20:43:19.110Z,85.24
2017-03-15T20:44:19.876Z,84.86
2017-03-15T20:45:20.591Z,84.86
2017-03-15T20:46:21.280Z,84.95
2017-03-15T20:47:21.951Z,85.24
2017-03-15T20:48:22.635Z,85.43
2017-03-15T20:49:23.305Z,85.43
2017-03-15T20:50:23.998Z,85.43
2017-03-15T20:51:24.662Z,85.43
2017-03-15T20:52:25.393Z,85.43
2017-03-15T20:53:26.083Z,85.34
2017-03-15T20:54:26.762Z,85.15
2017-03-15T20:55:27.423Z,85.15
2017-03-15T20:56:28.167Z,85.34
2017-03-15T20:57:28.844Z,85.15
2017-03-15T20:58:29.514Z,85.05
2017-03-15T20:59:30.176Z,84.86
2017-03-15T21:00:30.849Z,84.95
2017-03-15T21:01:31.850Z,85.15
2017-03-15T21:02:32.534Z,84.77
2017-03-15T21:03:33.274Z,85.34
2017-03-15T21:04:33.920Z,85.53
2017-03-15T21:05:34.816Z,85.24
2017-03-15T21:06:35.566Z,86
2017-03-15T21:07:36.271Z,85.91
2017-03-15T21:08:36.986Z,85.81
2017-03-15T21:09:37.701Z,85.62
2017-03-15T21:10:38.458Z,86
2017-03-15T21:11:39.199Z,85.24
2017-03-15T21:12:39.916Z,85.24
2017-03-15T21:13:40.695Z,85.81
2017-03-15T21:14:41.315Z,85.34
2017-03-15T21:15:42.067Z,85.43
2017-03-15T21:16:42.896Z,85.91
2017-03-15T21:17:43.610Z,86.38
2017-03-15T21:18:44.295Z,86.19
2017-03-15T21:19:45.128Z,85.91
2017-03-15T21:20:45.913Z,86.1
2017-03-15T21:21:46.949Z,86.29
2017-03-15T21:22:47.657Z,86.1
2017-03-15T21:23:48.332Z,86.29
2017-03-15T21:24:49.079Z,86.47
2017-03-15T21:25:49.854Z,86.29
2017-03-15T21:26:50.784Z,86.47
2017-03-15T21:27:51.607Z,86
2017-03-15T21:28:52.298Z,86.19
2017-03-15T21:29:52.973Z,86.86
2017-03-15T21:30:53.646Z,86.76
2017-03-15T21:31:54.305Z,87.34
2017-03-15T21:32:54.988Z,87.34
2017-03-15T21:33:55.733Z,87.34
2017-03-15T21:34:56.434Z,87.34
2017-03-15T21:35:57.111Z,87.43
2017-03-15T21:36:57.783Z,87.14
2017-03-15T21:37:58.501Z,87.34
2017-03-15T21:38:59.180Z,87.71
2017-03-15T21:39:59.917Z,87.71
2017-03-15T21:41:00.698Z,87.71
2017-03-15T21:42:01.395Z,87.81
2017-03-15T21:43:02.139Z,87.81
2017-03-15T21:44:02.829Z,87.52
2017-03-15T21:45:03.525Z,87.71
2017-03-15T21:46:04.207Z,87.81
2017-03-15T21:47:05.015Z,87.62
2017-03-15T21:48:05.798Z,87.9
2017-03-15T21:49:06.527Z,87.9
2017-03-15T21:50:07.185Z,87.62
2017-03-15T21:51:07.923Z,88.15
2017-03-15T21:52:08.647Z,87.81
2017-03-15T21:53:09.326Z,87.81
2017-03-15T21:54:10.087Z,87.67
2017-03-15T21:55:10.821Z,87.43
2017-03-15T21:56:11.570Z,88.34
2017-03-15T21:57:12.386Z,87.9
2017-03-15T21:58:13.138Z,88.57
2017-03-15T21:59:13.836Z,88.09
2017-03-15T22:00:14.636Z,87.9
2017-03-15T22:01:15.343Z,87.48
2017-03-15T22:02:16.110Z,87.57
2017-03-15T22:03:16.853Z,87.86
2017-03-15T22:04:17.638Z,87.76
2017-03-15T22:05:18.372Z,87.76
2017-03-15T22:06:19.075Z,87.76
2017-03-15T22:07:19.915Z,87.67
2017-03-15T22:08:20.575Z,87.57
2017-03-15T22:09:21.285Z,87.95
2017-03-15T22:10:21.966Z,88.71
2017-03-15T22:11:22.757Z,89.8
2017-03-15T22:12:23.472Z,89.42
2017-03-15T22:13:24.335Z,88.85
2017-03-15T22:14:25.088Z,88.57
2017-03-15T22:15:25.829Z,87.43
2017-03-15T22:16:26.560Z,86.19
2017-03-15T22:17:27.246Z,86.1
2017-03-15T22:18:27.920Z,86.1
2017-03-15T22:19:28.587Z,85.91
2017-03-15T22:20:29.268Z,86.86
2017-03-15T22:21:29.950Z,86.82
2017-03-15T22:22:30.979Z,87.01
2017-03-15T22:23:32.233Z,86.91
2017-03-15T22:24:33.617Z,86.82
2017-03-15T22:25:34.720Z,86.91
2017-03-15T22:26:35.393Z,86.91
2017-03-15T22:27:36.070Z,87.19
2017-03-15T22:28:36.735Z,87.76
2017-03-15T22:29:37.400Z,87.57
2017-03-15T22:30:38.087Z,87.76
2017-03-15T22:31:38.747Z,87.76
2017-03-15T22:32:39.425Z,88.05
2017-03-15T22:33:40.081Z,87.76
2017-03-15T22:34:40.759Z,87.86
2017-03-15T22:35:41.458Z,87.76
2017-03-15T22:36:42.115Z,87.76
2017-03-15T22:37:42.791Z,88.05
2017-03-15T22:38:43.494Z,87.86
2017-03-15T22:39:44.170Z,88.34
2017-03-15T22:40:44.828Z,88.43
2017-03-15T22:41:45.551Z,88.43
2017-03-15T22:42:46.224Z,88.34
2017-03-15T22:43:46.899Z,88.24
2017-03-15T22:44:47.582Z,88.24
2017-03-15T22:45:48.239Z,87.67
2017-03-15T22:46:48.897Z,88.15
2017-03-15T22:47:49.549Z,87.86
2017-03-15T22:48:50.241Z,88.24
2017-03-15T22:49:50.902Z,87.95
2017-03-15T22:50:51.571Z,87.95
2017-03-15T22:51:52.239Z,88.24
2017-03-15T22:52:52.900Z,88.34
2017-03-15T22:53:53.581Z,88.15
2017-03-15T22:54:54.258Z,88.15
2017-03-15T22:55:54.926Z,88.24
2017-03-15T22:56:55.595Z,88.34
2017-03-15T22:57:56.257Z,88.34
2017-03-15T22:58:56.926Z,88.53
2017-03-15T22:59:57.589Z,88.48
2017-03-15T23:00:58.235Z,88.53
2017-03-15T23:01:58.889Z,88.81
2017-03-15T23:02:59.531Z,88.81
2017-03-15T23:04:00.205Z,88.81
2017-03-15T23:05:00.864Z,89
2017-03-15T23:06:01.530Z,89.28
2017-03-15T23:07:02.184Z,88.81
2017-03-15T23:08:02.843Z,89.09
2017-03-15T23:09:03.502Z,88.48
2017-03-15T23:10:04.163Z,89
2017-03-15T23:11:04.805Z,89.19
2017-03-15T23:12:05.442Z,89.19
2017-03-15T23:13:06.107Z,89.09
2017-03-15T23:14:06.775Z,89
2017-03-15T23:15:07.444Z,89.19
2017-03-15T23:16:08.110Z,88.62
2017-03-15T23:17:08.781Z,88.62
2017-03-15T23:18:09.427Z,89.38
2017-03-15T23:19:10.070Z,89
2017-03-15T23:20:10.737Z,89.38
2017-03-15T23:21:11.473Z,89.19
2017-03-15T23:22:12.137Z,89.19
2017-03-15T23:23:12.800Z,89.09
2017-03-15T23:24:13.441Z,89.09
2017-03-15T23:25:14.174Z,89.67
2017-03-15T23:26:14.923Z,89.38
2017-03-15T23:27:15.565Z,89
2017-03-15T23:28:16.229Z,89.19
2017-03-15T23:29:16.912Z,89.19
2017-03-15T23:30:17.600Z,89.43
2017-03-15T23:31:18.268Z,89.38
2017-03-15T23:32:18.925Z,90.05
2017-03-15T23:33:19.632Z,89.19
2017-03-15T23:34:20.297Z,89.09
2017-03-15T23:35:20.948Z,89.67
2017-03-15T23:36:21.593Z,89.28
2017-03-15T23:37:22.236Z,89.47
2017-03-15T23:38:22.924Z,89.47
2017-03-15T23:39:23.573Z,89.47
2017-03-15T23:40:24.241Z,89.53
2017-03-15T23:41:24.887Z,89.47
2017-03-15T23:42:25.551Z,89.33
2017-03-15T23:43:26.231Z,89.53
2017-03-15T23:44:26.885Z,89.81
2017-03-15T23:45:27.545Z,89.62
2017-03-15T23:46:28.212Z,89.62
2017-03-15T23:47:28.865Z,89.81
2017-03-15T23:48:29.521Z,89.81
2017-03-15T23:49:30.188Z,89.76
2017-03-15T23:50:30.866Z,89.81
2017-03-15T23:51:31.529Z,89.95
2017-03-15T23:52:32.185Z,90
2017-03-15T23:53:32.845Z,89.33
2017-03-15T23:54:33.512Z,89.43